Mamaroneck, NY (10543)

8:18 AM EST on December 28, 2014 (GMT -0500)
APRSWXNET Mamaroneck NY US | Change Station
CLOSE
Current Station
Personal Weather Station
Location: Mamaroneck, NY
Elevation: 16 ft
Nearby Weather Stations

Elev 16 ft 40.95 °N, 73.73 °W | Updated 31 minutes ago

Rain
Rain
45 °F
Feels Like 45 °F
N
0
Wind Variable Wind from WSW
Gusts 3.0 mph

Today
High -- | Low -- °F
--% Chance of Precip.
Yesterday
High -- | Low -- °F
Precip. -- in
7:18 AM 4:34 PM
Waxing Crescent, 47% visible
Pressure 29.88 in
Visibility 3.0 miles
Clouds Mostly Cloudy 6500 ft
Overcast 8000 ft
Windchill 45 °F
Dew Point 41 °F
Humidity 85%
Rainfall 0.03 in
Snow Depth Not available.
UV 0 out of 12
Pollen .10 out of 12
Air Quality Not available.
Flu Activity Not available.
METAR KHPN 281256Z 20003KT 3SM -RA BR BKN065 OVC080 06/04 A2987 RMK AO2 SLP119 P0003 T00610044

More Conditions Fewer Conditions

Pressure 29.88 in
Visibility 3.0 miles
Clouds Mostly Cloudy 6500 ft
Overcast 8000 ft
Windchill 45 °F
Dew Point 41 °F
Humidity 85%
Rainfall 0.03 in
Snow Depth Not available.
UV 0 out of 12
Pollen .10 out of 12
Air Quality Not available.
Flu Activity Not available.
METAR KHPN 281256Z 20003KT 3SM -RA BR BKN065 OVC080 06/04 A2987 RMK AO2 SLP119 P0003 T00610044

More Conditions Fewer Conditions

10-Day Weather Forecast

Almanac

Astronomy

Dec. 28, 2014 Rise Set
Actual Time
Civil Twilight
Nautical Twilight
Astronomical Twilight
Moon
Length of Visible Light
Length of Day
Tomorrow will be .
, % of the Moon is Illuminated

Today's Extremes

State Highs State Lows

Community

WunderPhotos

Upload Photos

1,781,256 photos uploaded!

WunderBlogs® & News

Nearby

Air Quality

  Air Quality AQ Index Pollutant
Not available.

Snow Depth

Station Depth Elevation

Earthquake Activity

City Distance Mag. Time & Date
Minimum magnitude displayed is 2.5.

Coastal Water Temperatures

Place Temperature

Nearby Weather Stations